sensor_id;sensor_type;location;lat;lon;timestamp;pressure;altitude;pressure_sealevel;temperature;humidity
29549;BME280;16487;53.094;8.800;2023-03-11T00:00:43;102350.97;;;0.51;100.00
29549;BME280;16487;53.094;8.800;2023-03-11T00:03:15;102353.50;;;0.56;100.00
29549;BME280;16487;53.094;8.800;2023-03-11T00:05:45;102363.19;;;0.54;100.00
29549;BME280;16487;53.094;8.800;2023-03-11T00:08:14;102367.56;;;0.55;100.00
29549;BME280;16487;53.094;8.800;2023-03-11T00:10:45;102361.59;;;0.53;100.00
29549;BME280;16487;53.094;8.800;2023-03-11T00:13:14;102365.75;;;0.59;100.00
29549;BME280;16487;53.094;8.800;2023-03-11T00:15:44;102377.38;;;0.56;100.00
29549;BME280;16487;53.094;8.800;2023-03-11T00:18:13;102376.13;;;0.53;100.00
29549;BME280;16487;53.094;8.800;2023-03-11T00:20:42;102384.13;;;0.58;100.00
29549;BME280;16487;53.094;8.800;2023-03-11T00:23:12;102399.38;;;0.68;100.00
29549;BME280;16487;53.094;8.800;2023-03-11T00:25:42;102399.31;;;0.56;100.00
29549;BME280;16487;53.094;8.800;2023-03-11T00:28:12;102401.72;;;0.57;100.00
29549;BME280;16487;53.094;8.800;2023-03-11T00:30:42;102403.81;;;0.60;100.00
29549;BME280;16487;53.094;8.800;2023-03-11T00:33:11;102403.13;;;0.63;100.00
29549;BME280;16487;53.094;8.800;2023-03-11T00:35:40;102414.59;;;0.65;100.00
29549;BME280;16487;53.094;8.800;2023-03-11T00:38:12;102420.06;;;0.65;100.00
29549;BME280;16487;53.094;8.800;2023-03-11T00:40:39;102413.56;;;0.70;100.00
29549;BME280;16487;53.094;8.800;2023-03-11T00:43:07;102419.53;;;0.72;100.00
29549;BME280;16487;53.094;8.800;2023-03-11T00:45:36;102424.75;;;0.65;100.00
29549;BME280;16487;53.094;8.800;2023-03-11T00:48:04;102417.78;;;0.67;100.00
29549;BME280;16487;53.094;8.800;2023-03-11T00:50:34;102425.22;;;0.67;100.00
29549;BME280;16487;53.094;8.800;2023-03-11T00:53:03;102420.00;;;0.74;100.00
29549;BME280;16487;53.094;8.800;2023-03-11T00:55:32;102412.66;;;0.66;100.00
29549;BME280;16487;53.094;8.800;2023-03-11T00:58:04;102417.59;;;0.72;100.00
29549;BME280;16487;53.094;8.800;2023-03-11T01:00:41;102410.13;;;0.73;100.00
29549;BME280;16487;53.094;8.800;2023-03-11T01:03:08;102404.22;;;0.71;100.00
29549;BME280;16487;53.094;8.800;2023-03-11T01:05:35;102397.44;;;0.68;100.00
29549;BME280;16487;53.094;8.800;2023-03-11T01:08:03;102377.56;;;0.71;100.00
29549;BME280;16487;53.094;8.800;2023-03-11T01:10:32;102362.13;;;0.67;100.00
29549;BME280;16487;53.094;8.800;2023-03-11T01:12:59;102345.88;;;0.62;100.00
29549;BME280;16487;53.094;8.800;2023-03-11T01:15:29;102351.16;;;0.67;100.00
29549;BME280;16487;53.094;8.800;2023-03-11T01:17:59;102332.50;;;0.60;100.00
29549;BME280;16487;53.094;8.800;2023-03-11T01:20:27;102314.06;;;0.61;100.00
29549;BME280;16487;53.094;8.800;2023-03-11T01:22:54;102298.34;;;0.70;100.00
29549;BME280;16487;53.094;8.800;2023-03-11T01:25:22;102286.75;;;0.64;100.00
29549;BME280;16487;53.094;8.800;2023-03-11T01:27:50;102262.53;;;0.66;100.00
29549;BME280;16487;53.094;8.800;2023-03-11T01:30:20;102249.88;;;0.74;100.00
29549;BME280;16487;53.094;8.800;2023-03-11T01:32:48;102239.03;;;0.77;100.00
29549;BME280;16487;53.094;8.800;2023-03-11T01:35:19;102204.47;;;0.76;100.00
29549;BME280;16487;53.094;8.800;2023-03-11T01:37:46;102181.75;;;0.76;100.00
29549;BME280;16487;53.094;8.800;2023-03-11T01:40:27;102154.66;;;0.74;100.00
29549;BME280;16487;53.094;8.800;2023-03-11T01:42:56;102142.19;;;0.65;100.00
29549;BME280;16487;53.094;8.800;2023-03-11T01:45:40;102138.63;;;0.64;100.00
29549;BME280;16487;53.094;8.800;2023-03-11T01:48:10;102122.06;;;0.61;100.00
29549;BME280;16487;53.094;8.800;2023-03-11T01:50:42;102119.66;;;0.59;100.00
29549;BME280;16487;53.094;8.800;2023-03-11T01:53:10;102108.09;;;0.54;100.00
29549;BME280;16487;53.094;8.800;2023-03-11T01:55:40;102095.09;;;0.63;100.00
29549;BME280;16487;53.094;8.800;2023-03-11T01:58:10;102108.22;;;0.57;100.00
29549;BME280;16487;53.094;8.800;2023-03-11T02:00:41;102088.00;;;0.62;100.00
29549;BME280;16487;53.094;8.800;2023-03-11T02:03:12;102066.31;;;0.57;100.00
29549;BME280;16487;53.094;8.800;2023-03-11T02:05:42;102049.84;;;0.57;100.00
29549;BME280;16487;53.094;8.800;2023-03-11T02:08:10;102031.44;;;0.57;100.00
29549;BME280;16487;53.094;8.800;2023-03-11T02:10:40;102028.69;;;0.57;100.00
29549;BME280;16487;53.094;8.800;2023-03-11T02:13:09;102007.56;;;0.58;100.00
29549;BME280;16487;53.094;8.800;2023-03-11T02:15:37;101997.25;;;0.67;100.00
29549;BME280;16487;53.094;8.800;2023-03-11T02:18:07;101981.03;;;0.62;100.00
29549;BME280;16487;53.094;8.800;2023-03-11T02:20:41;101977.00;;;0.71;100.00
29549;BME280;16487;53.094;8.800;2023-03-11T02:23:15;101938.06;;;0.66;100.00
29549;BME280;16487;53.094;8.800;2023-03-11T02:25:51;101940.25;;;0.60;100.00
29549;BME280;16487;53.094;8.800;2023-03-11T02:28:22;101929.38;;;0.64;100.00
29549;BME280;16487;53.094;8.800;2023-03-11T02:30:51;101930.16;;;0.64;100.00
29549;BME280;16487;53.094;8.800;2023-03-11T02:33:19;101919.88;;;0.61;100.00
29549;BME280;16487;53.094;8.800;2023-03-11T02:35:47;101919.53;;;0.63;100.00
29549;BME280;16487;53.094;8.800;2023-03-11T02:38:15;101908.13;;;0.61;100.00
29549;BME280;16487;53.094;8.800;2023-03-11T02:40:48;101907.66;;;0.71;100.00
29549;BME280;16487;53.094;8.800;2023-03-11T02:43:23;101895.31;;;0.65;100.00
29549;BME280;16487;53.094;8.800;2023-03-11T02:45:50;101888.34;;;0.67;100.00
29549;BME280;16487;53.094;8.800;2023-03-11T02:48:20;101880.88;;;0.68;100.00
29549;BME280;16487;53.094;8.800;2023-03-11T02:50:48;101875.66;;;0.63;100.00
29549;BME280;16487;53.094;8.800;2023-03-11T02:53:17;101868.34;;;0.67;100.00
29549;BME280;16487;53.094;8.800;2023-03-11T02:55:45;101849.03;;;0.63;100.00
29549;BME280;16487;53.094;8.800;2023-03-11T02:58:13;101839.66;;;0.64;100.00
29549;BME280;16487;53.094;8.800;2023-03-11T03:00:42;101803.00;;;0.57;100.00
29549;BME280;16487;53.094;8.800;2023-03-11T03:03:09;101797.06;;;0.55;100.00
29549;BME280;16487;53.094;8.800;2023-03-11T03:05:38;101778.31;;;0.57;100.00
29549;BME280;16487;53.094;8.800;2023-03-11T03:08:05;101752.28;;;0.51;100.00
29549;BME280;16487;53.094;8.800;2023-03-11T03:10:33;101724.47;;;0.37;100.00
29549;BME280;16487;53.094;8.800;2023-03-11T03:13:01;101694.06;;;0.42;100.00
29549;BME280;16487;53.094;8.800;2023-03-11T03:15:29;101663.91;;;0.42;100.00
29549;BME280;16487;53.094;8.800;2023-03-11T03:17:57;101637.38;;;0.46;100.00
29549;BME280;16487;53.094;8.800;2023-03-11T03:20:25;101604.03;;;0.44;100.00
29549;BME280;16487;53.094;8.800;2023-03-11T03:22:59;101584.41;;;0.42;100.00
29549;BME280;16487;53.094;8.800;2023-03-11T03:25:30;101568.84;;;0.46;100.00
29549;BME280;16487;53.094;8.800;2023-03-11T03:28:01;101561.06;;;0.48;100.00
29549;BME280;16487;53.094;8.800;2023-03-11T03:30:30;101565.91;;;0.54;100.00
29549;BME280;16487;53.094;8.800;2023-03-11T03:33:00;101566.72;;;0.55;100.00
29549;BME280;16487;53.094;8.800;2023-03-11T03:35:29;101587.22;;;0.61;100.00
29549;BME280;16487;53.094;8.800;2023-03-11T03:38:09;101601.66;;;0.58;100.00
29549;BME280;16487;53.094;8.800;2023-03-11T03:40:37;101642.78;;;0.58;100.00
29549;BME280;16487;53.094;8.800;2023-03-11T03:43:06;101653.84;;;0.61;100.00
29549;BME280;16487;53.094;8.800;2023-03-11T03:45:36;101665.16;;;0.60;100.00
29549;BME280;16487;53.094;8.800;2023-03-11T03:48:05;101675.69;;;0.58;100.00
29549;BME280;16487;53.094;8.800;2023-03-11T03:50:38;101669.84;;;0.59;100.00
29549;BME280;16487;53.094;8.800;2023-03-11T03:53:07;101659.50;;;0.53;100.00
29549;BME280;16487;53.094;8.800;2023-03-11T03:55:34;101646.34;;;0.58;100.00
29549;BME280;16487;53.094;8.800;2023-03-11T03:58:02;101629.34;;;0.53;100.00
29549;BME280;16487;53.094;8.800;2023-03-11T04:00:32;101603.16;;;0.55;100.00
29549;BME280;16487;53.094;8.800;2023-03-11T04:03:02;101570.44;;;0.47;100.00
29549;BME280;16487;53.094;8.800;2023-03-11T04:05:46;101540.69;;;0.49;100.00
29549;BME280;16487;53.094;8.800;2023-03-11T04:08:14;101502.41;;;0.52;100.00
29549;BME280;16487;53.094;8.800;2023-03-11T04:10:42;101489.78;;;0.48;100.00
29549;BME280;16487;53.094;8.800;2023-03-11T04:13:09;101462.34;;;0.48;100.00
29549;BME280;16487;53.094;8.800;2023-03-11T04:15:37;101452.25;;;0.52;100.00
29549;BME280;16487;53.094;8.800;2023-03-11T04:18:05;101453.84;;;0.53;100.00
29549;BME280;16487;53.094;8.800;2023-03-11T04:20:32;101461.38;;;0.40;100.00
29549;BME280;16487;53.094;8.800;2023-03-11T04:23:01;101471.50;;;0.36;100.00
29549;BME280;16487;53.094;8.800;2023-03-11T04:25:28;101480.59;;;0.25;100.00
29549;BME280;16487;53.094;8.800;2023-03-11T04:27:56;101492.44;;;0.29;100.00
29549;BME280;16487;53.094;8.800;2023-03-11T04:30:24;101522.97;;;0.27;100.00
29549;BME280;16487;53.094;8.800;2023-03-11T04:32:55;101536.31;;;0.29;100.00
29549;BME280;16487;53.094;8.800;2023-03-11T04:35:23;101560.00;;;0.37;100.00
29549;BME280;16487;53.094;8.800;2023-03-11T04:37:51;101578.72;;;0.35;100.00
29549;BME280;16487;53.094;8.800;2023-03-11T04:40:20;101591.31;;;0.36;100.00
29549;BME280;16487;53.094;8.800;2023-03-11T04:42:48;101598.38;;;0.37;100.00
29549;BME280;16487;53.094;8.800;2023-03-11T04:45:16;101599.63;;;0.24;100.00
29549;BME280;16487;53.094;8.800;2023-03-11T04:47:46;101612.78;;;0.34;100.00
29549;BME280;16487;53.094;8.800;2023-03-11T04:50:15;101620.66;;;0.35;100.00
29549;BME280;16487;53.094;8.800;2023-03-11T04:52:42;101617.38;;;0.30;100.00
29549;BME280;16487;53.094;8.800;2023-03-11T04:55:10;101622.44;;;0.28;100.00
29549;BME280;16487;53.094;8.800;2023-03-11T04:57:39;101608.81;;;0.31;100.00
29549;BME280;16487;53.094;8.800;2023-03-11T05:00:09;101608.56;;;0.36;100.00
29549;BME280;16487;53.094;8.800;2023-03-11T05:02:39;101601.91;;;0.37;100.00
29549;BME280;16487;53.094;8.800;2023-03-11T05:05:08;101582.47;;;0.42;100.00
29549;BME280;16487;53.094;8.800;2023-03-11T05:07:36;101557.69;;;0.39;100.00
29549;BME280;16487;53.094;8.800;2023-03-11T05:10:05;101533.28;;;0.34;100.00
29549;BME280;16487;53.094;8.800;2023-03-11T05:12:35;101516.13;;;0.37;100.00
29549;BME280;16487;53.094;8.800;2023-03-11T05:15:05;101484.13;;;0.41;100.00
29549;BME280;16487;53.094;8.800;2023-03-11T05:17:32;101452.78;;;0.42;100.00
29549;BME280;16487;53.094;8.800;2023-03-11T05:20:00;101411.25;;;0.40;100.00
29549;BME280;16487;53.094;8.800;2023-03-11T05:22:31;101351.94;;;0.32;100.00
29549;BME280;16487;53.094;8.800;2023-03-11T05:24:59;101276.28;;;0.27;100.00
29549;BME280;16487;53.094;8.800;2023-03-11T05:27:26;101197.78;;;0.19;100.00
29549;BME280;16487;53.094;8.800;2023-03-11T05:29:55;101141.28;;;0.11;100.00
29549;BME280;16487;53.094;8.800;2023-03-11T05:32:26;101090.31;;;0.07;100.00
29549;BME280;16487;53.094;8.800;2023-03-11T05:34:54;101020.72;;;-0.12;100.00
29549;BME280;16487;53.094;8.800;2023-03-11T05:37:21;100984.31;;;-0.12;100.00
29549;BME280;16487;53.094;8.800;2023-03-11T05:39:50;100935.44;;;-0.10;100.00
29549;BME280;16487;53.094;8.800;2023-03-11T05:42:18;100908.44;;;-0.12;100.00
29549;BME280;16487;53.094;8.800;2023-03-11T05:44:50;100880.09;;;-0.23;100.00
29549;BME280;16487;53.094;8.800;2023-03-11T05:47:18;100856.72;;;-0.17;100.00
29549;BME280;16487;53.094;8.800;2023-03-11T05:49:49;100828.53;;;-0.17;100.00
29549;BME280;16487;53.094;8.800;2023-03-11T05:52:18;100813.22;;;-0.22;100.00
29549;BME280;16487;53.094;8.800;2023-03-11T05:54:48;100787.00;;;-0.23;100.00
29549;BME280;16487;53.094;8.800;2023-03-11T05:57:16;100775.94;;;-0.30;100.00
29549;BME280;16487;53.094;8.800;2023-03-11T05:59:44;100750.88;;;-0.32;100.00
29549;BME280;16487;53.094;8.800;2023-03-11T06:02:13;100744.81;;;-0.18;100.00
29549;BME280;16487;53.094;8.800;2023-03-11T06:04:40;100727.16;;;-0.21;100.00
29549;BME280;16487;53.094;8.800;2023-03-11T06:07:10;100725.97;;;-0.23;100.00
29549;BME280;16487;53.094;8.800;2023-03-11T06:09:38;100710.34;;;-0.23;100.00
29549;BME280;16487;53.094;8.800;2023-03-11T06:12:10;100705.25;;;-0.21;100.00
29549;BME280;16487;53.094;8.800;2023-03-11T06:14:48;100695.84;;;-0.23;100.00
29549;BME280;16487;53.094;8.800;2023-03-11T06:17:16;100684.63;;;-0.15;100.00
29549;BME280;16487;53.094;8.800;2023-03-11T06:19:43;100675.69;;;-0.08;100.00
29549;BME280;16487;53.094;8.800;2023-03-11T06:22:12;100674.53;;;-0.07;100.00
29549;BME280;16487;53.094;8.800;2023-03-11T06:24:39;100667.44;;;-0.12;100.00
29549;BME280;16487;53.094;8.800;2023-03-11T06:27:06;100664.31;;;-0.10;100.00
29549;BME280;16487;53.094;8.800;2023-03-11T06:29:34;100658.88;;;-0.07;100.00
29549;BME280;16487;53.094;8.800;2023-03-11T06:32:01;100651.75;;;-0.15;100.00
29549;BME280;16487;53.094;8.800;2023-03-11T06:34:29;100644.03;;;-0.06;100.00
29549;BME280;16487;53.094;8.800;2023-03-11T06:36:56;100644.41;;;-0.07;100.00
29549;BME280;16487;53.094;8.800;2023-03-11T06:39:25;100634.22;;;-0.07;100.00
29549;BME280;16487;53.094;8.800;2023-03-11T06:41:53;100633.69;;;0.18;100.00
29549;BME280;16487;53.094;8.800;2023-03-11T06:44:21;100631.19;;;0.39;100.00
29549;BME280;16487;53.094;8.800;2023-03-11T06:46:48;100632.00;;;0.43;100.00
29549;BME280;16487;53.094;8.800;2023-03-11T06:49:17;100618.66;;;0.38;100.00
29549;BME280;16487;53.094;8.800;2023-03-11T06:51:44;100602.88;;;0.24;100.00
29549;BME280;16487;53.094;8.800;2023-03-11T06:54:13;100589.91;;;0.21;100.00
29549;BME280;16487;53.094;8.800;2023-03-11T06:56:42;100583.66;;;0.21;100.00
29549;BME280;16487;53.094;8.800;2023-03-11T06:59:10;100573.41;;;0.14;100.00
29549;BME280;16487;53.094;8.800;2023-03-11T07:01:38;100562.84;;;0.16;100.00
29549;BME280;16487;53.094;8.800;2023-03-11T07:04:08;100549.53;;;0.15;100.00
29549;BME280;16487;53.094;8.800;2023-03-11T07:06:40;100547.13;;;0.10;100.00
29549;BME280;16487;53.094;8.800;2023-03-11T07:09:13;100527.63;;;0.15;100.00
29549;BME280;16487;53.094;8.800;2023-03-11T07:11:44;100538.69;;;0.29;100.00
29549;BME280;16487;53.094;8.800;2023-03-11T07:14:16;100524.63;;;0.30;100.00
29549;BME280;16487;53.094;8.800;2023-03-11T07:16:47;100510.94;;;0.34;100.00
29549;BME280;16487;53.094;8.800;2023-03-11T07:19:25;100488.59;;;0.32;100.00
29549;BME280;16487;53.094;8.800;2023-03-11T07:21:53;100484.00;;;0.43;100.00
29549;BME280;16487;53.094;8.800;2023-03-11T07:24:20;100476.25;;;0.52;100.00
29549;BME280;16487;53.094;8.800;2023-03-11T07:26:48;100459.84;;;0.62;100.00
29549;BME280;16487;53.094;8.800;2023-03-11T07:29:16;100451.19;;;0.57;100.00
29549;BME280;16487;53.094;8.800;2023-03-11T07:31:44;100436.31;;;0.58;100.00
29549;BME280;16487;53.094;8.800;2023-03-11T07:34:11;100419.06;;;0.54;100.00
29549;BME280;16487;53.094;8.800;2023-03-11T07:36:40;100397.84;;;0.44;100.00
29549;BME280;16487;53.094;8.800;2023-03-11T07:39:12;100380.59;;;0.33;100.00
29549;BME280;16487;53.094;8.800;2023-03-11T07:41:40;100362.22;;;0.40;100.00
29549;BME280;16487;53.094;8.800;2023-03-11T07:44:10;100348.47;;;0.37;100.00
29549;BME280;16487;53.094;8.800;2023-03-11T07:46:38;100339.84;;;0.28;100.00
29549;BME280;16487;53.094;8.800;2023-03-11T07:49:05;100318.31;;;0.30;100.00
29549;BME280;16487;53.094;8.800;2023-03-11T07:51:35;100305.78;;;0.29;100.00
29549;BME280;16487;53.094;8.800;2023-03-11T07:54:03;100299.16;;;0.37;100.00
29549;BME280;16487;53.094;8.800;2023-03-11T07:56:33;100283.06;;;0.28;100.00
29549;BME280;16487;53.094;8.800;2023-03-11T07:59:02;100288.19;;;0.37;100.00
29549;BME280;16487;53.094;8.800;2023-03-11T08:01:31;100281.56;;;0.38;100.00
29549;BME280;16487;53.094;8.800;2023-03-11T08:03:59;100267.88;;;0.45;100.00
29549;BME280;16487;53.094;8.800;2023-03-11T08:06:29;100261.63;;;0.48;100.00
29549;BME280;16487;53.094;8.800;2023-03-11T08:09:26;100253.44;;;0.62;100.00
29549;BME280;16487;53.094;8.800;2023-03-11T08:11:54;100255.41;;;0.65;100.00
29549;BME280;16487;53.094;8.800;2023-03-11T08:14:21;100240.91;;;0.68;100.00
29549;BME280;16487;53.094;8.800;2023-03-11T08:16:50;100230.72;;;0.65;100.00
29549;BME280;16487;53.094;8.800;2023-03-11T08:19:17;100228.75;;;0.62;100.00
29549;BME280;16487;53.094;8.800;2023-03-11T08:21:44;100218.94;;;0.61;100.00
29549;BME280;16487;53.094;8.800;2023-03-11T08:24:13;100217.00;;;0.54;100.00
29549;BME280;16487;53.094;8.800;2023-03-11T08:26:41;100211.94;;;0.74;100.00
29549;BME280;16487;53.094;8.800;2023-03-11T08:29:08;100197.44;;;0.70;100.00
29549;BME280;16487;53.094;8.800;2023-03-11T08:31:36;100187.28;;;0.81;100.00
29549;BME280;16487;53.094;8.800;2023-03-11T08:34:07;100184.53;;;0.81;100.00
29549;BME280;16487;53.094;8.800;2023-03-11T08:36:38;100166.88;;;0.89;100.00
29549;BME280;16487;53.094;8.800;2023-03-11T08:39:06;100157.09;;;0.95;100.00
29549;BME280;16487;53.094;8.800;2023-03-11T08:41:33;100152.03;;;0.90;100.00
29549;BME280;16487;53.094;8.800;2023-03-11T08:44:01;100142.19;;;0.96;100.00
29549;BME280;16487;53.094;8.800;2023-03-11T08:46:30;100127.69;;;0.99;100.00
29549;BME280;16487;53.094;8.800;2023-03-11T08:48:58;100126.13;;;0.94;100.00
29549;BME280;16487;53.094;8.800;2023-03-11T08:51:31;100126.13;;;1.01;100.00
29549;BME280;16487;53.094;8.800;2023-03-11T08:53:59;100129.66;;;1.05;100.00
29549;BME280;16487;53.094;8.800;2023-03-11T08:56:27;100144.94;;;1.17;100.00
29549;BME280;16487;53.094;8.800;2023-03-11T08:58:55;100155.50;;;1.22;100.00
29549;BME280;16487;53.094;8.800;2023-03-11T09:01:22;100155.88;;;1.28;100.00
29549;BME280;16487;53.094;8.800;2023-03-11T09:03:50;100166.06;;;1.34;100.00
29549;BME280;16487;53.094;8.800;2023-03-11T09:06:18;100162.91;;;1.39;100.00
29549;BME280;16487;53.094;8.800;2023-03-11T09:08:47;100167.16;;;1.61;100.00
29549;BME280;16487;53.094;8.800;2023-03-11T09:11:16;100160.13;;;1.60;100.00
29549;BME280;16487;53.094;8.800;2023-03-11T09:13:44;100151.03;;;1.77;100.00
29549;BME280;16487;53.094;8.800;2023-03-11T09:16:12;100134.53;;;1.81;100.00
29549;BME280;16487;53.094;8.800;2023-03-11T09:18:41;100118.03;;;1.84;100.00
29549;BME280;16487;53.094;8.800;2023-03-11T09:21:09;100113.28;;;1.95;100.00
29549;BME280;16487;53.094;8.800;2023-03-11T09:23:36;100104.63;;;2.00;100.00
29549;BME280;16487;53.094;8.800;2023-03-11T09:26:05;100091.28;;;2.02;100.00
29549;BME280;16487;53.094;8.800;2023-03-11T09:28:32;100076.31;;;2.07;100.00
29549;BME280;16487;53.094;8.800;2023-03-11T09:31:00;100088.31;;;2.30;100.00
29549;BME280;16487;53.094;8.800;2023-03-11T09:33:27;100076.22;;;2.24;100.00
29549;BME280;16487;53.094;8.800;2023-03-11T09:35:56;100057.38;;;2.23;100.00
29549;BME280;16487;53.094;8.800;2023-03-11T09:38:23;100036.91;;;2.27;100.00
29549;BME280;16487;53.094;8.800;2023-03-11T09:40:57;100024.72;;;2.32;100.00
29549;BME280;16487;53.094;8.800;2023-03-11T09:43:37;100024.59;;;2.43;100.00
29549;BME280;16487;53.094;8.800;2023-03-11T09:46:21;100008.09;;;2.43;100.00
29549;BME280;16487;53.094;8.800;2023-03-11T09:48:56;100005.31;;;2.50;100.00
29549;BME280;16487;53.094;8.800;2023-03-11T09:51:28;99983.97;;;2.64;100.00
29549;BME280;16487;53.094;8.800;2023-03-11T09:54:02;99969.81;;;2.62;100.00
29549;BME280;16487;53.094;8.800;2023-03-11T09:56:30;99951.00;;;2.61;100.00
29549;BME280;16487;53.094;8.800;2023-03-11T09:59:05;99956.34;;;2.75;100.00
29549;BME280;16487;53.094;8.800;2023-03-11T10:01:35;99942.13;;;2.80;100.00
29549;BME280;16487;53.094;8.800;2023-03-11T10:04:10;99931.81;;;2.91;100.00
29549;BME280;16487;53.094;8.800;2023-03-11T10:06:41;99931.81;;;2.91;100.00
29549;BME280;16487;53.094;8.800;2023-03-11T10:09:24;99921.94;;;2.93;100.00
29549;BME280;16487;53.094;8.800;2023-03-11T10:12:04;99904.81;;;3.09;100.00
29549;BME280;16487;53.094;8.800;2023-03-11T10:14:44;99887.38;;;3.19;100.00
29549;BME280;16487;53.094;8.800;2023-03-11T10:17:21;99878.75;;;3.17;100.00
29549;BME280;16487;53.094;8.800;2023-03-11T10:20:02;99872.25;;;3.34;100.00
29549;BME280;16487;53.094;8.800;2023-03-11T10:22:37;99865.38;;;3.45;100.00
29549;BME280;16487;53.094;8.800;2023-03-11T10:25:10;99853.94;;;3.47;100.00
29549;BME280;16487;53.094;8.800;2023-03-11T10:27:44;99838.03;;;4.04;100.00
29549;BME280;16487;53.094;8.800;2023-03-11T10:30:24;99779.31;;;5.50;100.00
29549;BME280;16487;53.094;8.800;2023-03-11T10:32:56;99732.22;;;5.86;100.00
29549;BME280;16487;53.094;8.800;2023-03-11T10:35:31;99725.63;;;5.35;100.00
29549;BME280;16487;53.094;8.800;2023-03-11T10:38:06;99726.84;;;6.23;100.00
29549;BME280;16487;53.094;8.800;2023-03-11T10:40:38;99738.00;;;6.32;100.00
29549;BME280;16487;53.094;8.800;2023-03-11T10:43:10;99743.56;;;6.32;100.00
29549;BME280;16487;53.094;8.800;2023-03-11T10:45:41;99739.94;;;6.48;100.00
29549;BME280;16487;53.094;8.800;2023-03-11T10:48:12;99743.09;;;6.87;100.00
29549;BME280;16487;53.094;8.800;2023-03-11T10:50:53;99736.78;;;6.21;100.00
29549;BME280;16487;53.094;8.800;2023-03-11T10:53:23;99742.34;;;6.05;100.00
29549;BME280;16487;53.094;8.800;2023-03-11T10:55:52;99731.38;;;6.01;100.00
29549;BME280;16487;53.094;8.800;2023-03-11T10:58:22;99735.75;;;5.86;100.00
29549;BME280;16487;53.094;8.800;2023-03-11T11:01:03;99735.91;;;5.79;100.00
29549;BME280;16487;53.094;8.800;2023-03-11T11:03:32;99735.47;;;5.80;100.00
29549;BME280;16487;53.094;8.800;2023-03-11T11:06:03;99746.09;;;5.98;100.00
29549;BME280;16487;53.094;8.800;2023-03-11T11:08:32;99741.72;;;5.85;100.00
29549;BME280;16487;53.094;8.800;2023-03-11T11:11:01;99739.31;;;6.15;100.00
29549;BME280;16487;53.094;8.800;2023-03-11T11:13:29;99735.50;;;6.38;100.00
29549;BME280;16487;53.094;8.800;2023-03-11T11:15:59;99745.00;;;6.90;100.00
29549;BME280;16487;53.094;8.800;2023-03-11T11:18:31;99756.31;;;6.96;100.00
29549;BME280;16487;53.094;8.800;2023-03-11T11:21:03;99775.78;;;6.80;100.00
29549;BME280;16487;53.094;8.800;2023-03-11T11:23:37;99779.97;;;6.84;100.00
29549;BME280;16487;53.094;8.800;2023-03-11T11:26:14;99788.13;;;6.50;100.00
29549;BME280;16487;53.094;8.800;2023-03-11T11:28:42;99795.50;;;7.45;100.00
29549;BME280;16487;53.094;8.800;2023-03-11T11:31:21;99835.31;;;7.26;100.00
29549;BME280;16487;53.094;8.800;2023-03-11T11:33:52;99844.59;;;7.94;100.00
29549;BME280;16487;53.094;8.800;2023-03-11T11:36:22;99853.28;;;8.18;100.00
29549;BME280;16487;53.094;8.800;2023-03-11T11:38:52;99881.09;;;7.68;100.00
29549;BME280;16487;53.094;8.800;2023-03-11T11:41:20;99873.66;;;7.90;100.00
29549;BME280;16487;53.094;8.800;2023-03-11T11:43:51;99905.72;;;7.91;100.00
29549;BME280;16487;53.094;8.800;2023-03-11T11:46:23;99929.53;;;7.38;100.00
29549;BME280;16487;53.094;8.800;2023-03-11T11:49:04;99923.69;;;8.24;100.00
29549;BME280;16487;53.094;8.800;2023-03-11T11:51:34;99942.22;;;8.14;100.00
29549;BME280;16487;53.094;8.800;2023-03-11T11:54:10;99986.72;;;7.86;100.00
29549;BME280;16487;53.094;8.800;2023-03-11T11:56:40;99990.28;;;7.74;100.00
29549;BME280;16487;53.094;8.800;2023-03-11T11:59:12;100022.66;;;7.77;100.00
29549;BME280;16487;53.094;8.800;2023-03-11T12:01:46;100023.91;;;8.01;100.00
29549;BME280;16487;53.094;8.800;2023-03-11T12:04:28;100070.13;;;8.33;100.00
29549;BME280;16487;53.094;8.800;2023-03-11T12:07:08;100107.38;;;8.19;100.00
29549;BME280;16487;53.094;8.800;2023-03-11T12:09:45;100193.88;;;7.60;100.00
29549;BME280;16487;53.094;8.800;2023-03-11T12:12:20;100170.09;;;8.95;100.00
29549;BME280;16487;53.094;8.800;2023-03-11T12:14:56;100251.66;;;9.26;100.00
29549;BME280;16487;53.094;8.800;2023-03-11T12:17:26;100319.13;;;10.36;100.00
29549;BME280;16487;53.094;8.800;2023-03-11T12:20:00;100533.38;;;10.56;100.00
29549;BME280;16487;53.094;8.800;2023-03-11T12:22:52;100710.47;;;9.87;100.00
29549;BME280;16487;53.094;8.800;2023-03-11T12:25:35;100728.53;;;10.65;100.00
29549;BME280;16487;53.094;8.800;2023-03-11T12:28:15;100746.56;;;10.48;100.00
29549;BME280;16487;53.094;8.800;2023-03-11T12:30:47;100801.97;;;9.05;100.00
29549;BME280;16487;53.094;8.800;2023-03-11T12:33:22;100754.28;;;9.22;100.00
29549;BME280;16487;53.094;8.800;2023-03-11T12:35:55;100776.97;;;9.37;100.00
29549;BME280;16487;53.094;8.800;2023-03-11T12:38:29;100750.28;;;8.72;100.00
29549;BME280;16487;53.094;8.800;2023-03-11T12:41:00;100797.13;;;9.09;100.00
29549;BME280;16487;53.094;8.800;2023-03-11T12:44:02;100790.44;;;9.39;100.00
29549;BME280;16487;53.094;8.800;2023-03-11T12:47:00;100826.69;;;8.99;100.00
29549;BME280;16487;53.094;8.800;2023-03-11T12:49:29;100779.66;;;9.24;100.00
29549;BME280;16487;53.094;8.800;2023-03-11T12:52:15;100792.91;;;9.37;100.00
29549;BME280;16487;53.094;8.800;2023-03-11T12:54:44;100785.88;;;8.41;100.00
29549;BME280;16487;53.094;8.800;2023-03-11T12:57:30;100741.94;;;7.74;100.00
29549;BME280;16487;53.094;8.800;2023-03-11T13:00:10;100652.28;;;7.15;100.00
29549;BME280;16487;53.094;8.800;2023-03-11T13:02:55;100671.47;;;7.91;100.00
29549;BME280;16487;53.094;8.800;2023-03-11T13:05:43;100708.22;;;8.54;100.00
29549;BME280;16487;53.094;8.800;2023-03-11T13:08:19;100762.25;;;9.04;100.00